createdAt,value
2023-03-17T00:01:57.000Z,2.73
2023-03-17T00:04:27.494Z,2.79
2023-03-17T00:06:55.703Z,2.79
2023-03-17T00:09:23.345Z,2.79
2023-03-17T00:11:51.438Z,2.81
2023-03-17T00:14:20.230Z,2.80
2023-03-17T00:16:52.316Z,2.77
2023-03-17T00:19:28.515Z,2.77
2023-03-17T00:21:56.524Z,2.71
2023-03-17T00:24:23.909Z,2.76
2023-03-17T00:26:51.558Z,2.79
2023-03-17T00:29:19.565Z,2.86
2023-03-17T00:31:47.627Z,2.82
2023-03-17T00:34:18.820Z,2.84
2023-03-17T00:36:51.009Z,2.81
2023-03-17T00:39:18.970Z,2.87
2023-03-17T00:41:50.386Z,2.78
2023-03-17T00:44:18.929Z,2.80
2023-03-17T00:46:46.757Z,2.81
2023-03-17T00:51:46.098Z,2.89
2023-03-17T00:54:16.537Z,2.86
2023-03-17T00:56:45.171Z,2.89
2023-03-17T00:59:28.022Z,2.85
2023-03-17T01:01:56.393Z,2.77
2023-03-17T01:04:24.251Z,2.76
2023-03-17T01:06:53.297Z,2.75
2023-03-17T01:09:24.384Z,2.79
2023-03-17T01:11:51.844Z,2.66
2023-03-17T01:16:48.038Z,2.83
2023-03-17T01:19:15.614Z,2.83
2023-03-17T01:21:43.362Z,2.88
2023-03-17T01:24:11.716Z,2.86
2023-03-17T01:26:40.849Z,2.85
2023-03-17T01:29:08.949Z,2.87
2023-03-17T01:31:37.583Z,2.85
2023-03-17T01:34:06.520Z,2.79
2023-03-17T01:36:34.669Z,2.73
2023-03-17T01:39:05.721Z,2.73
2023-03-17T01:41:36.784Z,2.83
2023-03-17T01:44:04.542Z,2.81
2023-03-17T01:46:34.489Z,2.77
2023-03-17T01:49:05.756Z,2.73
2023-03-17T01:52:06.824Z,2.77
2023-03-17T01:54:40.259Z,2.80
2023-03-17T01:57:32.708Z,2.73
2023-03-17T02:00:08.463Z,2.70
2023-03-17T02:02:44.056Z,2.65
2023-03-17T02:05:17.261Z,2.58
2023-03-17T02:07:48.110Z,2.58
2023-03-17T02:10:19.418Z,2.61
2023-03-17T02:12:52.302Z,2.55
2023-03-17T02:15:19.467Z,2.55
2023-03-17T02:17:46.759Z,2.60
2023-03-17T02:20:17.474Z,2.68
2023-03-17T02:22:48.352Z,2.59
2023-03-17T02:25:18.046Z,2.66
2023-03-17T02:27:48.611Z,2.63
2023-03-17T02:30:19.643Z,2.63
2023-03-17T02:32:47.754Z,2.66
2023-03-17T02:35:15.634Z,2.63
2023-03-17T02:37:44.202Z,2.65
2023-03-17T02:40:13.714Z,2.53
2023-03-17T02:42:41.507Z,2.66
2023-03-17T02:45:11.978Z,2.66
2023-03-17T02:47:40.225Z,2.66
2023-03-17T02:50:09.689Z,2.68
2023-03-17T02:52:37.705Z,2.72
2023-03-17T02:55:06.127Z,2.69
2023-03-17T02:57:33.493Z,2.65
2023-03-17T03:00:00.514Z,2.65
2023-03-17T03:02:27.910Z,2.58
2023-03-17T03:04:55.223Z,2.58
2023-03-17T03:07:23.039Z,2.61
2023-03-17T03:09:50.707Z,2.59
2023-03-17T03:12:18.322Z,2.60
2023-03-17T03:14:46.320Z,2.65
2023-03-17T03:17:14.009Z,2.58
2023-03-17T03:19:41.243Z,2.59
2023-03-17T03:22:09.343Z,2.55
2023-03-17T03:24:38.001Z,2.59
2023-03-17T03:27:05.573Z,2.63
2023-03-17T03:29:32.771Z,2.66
2023-03-17T03:32:00.157Z,2.68
2023-03-17T03:34:28.573Z,2.67
2023-03-17T03:36:56.243Z,2.75
2023-03-17T03:39:23.760Z,2.71
2023-03-17T03:41:51.258Z,2.78
2023-03-17T03:44:18.502Z,2.72
2023-03-17T03:46:45.975Z,2.66
2023-03-17T03:49:13.353Z,2.51
2023-03-17T03:51:41.102Z,2.70
2023-03-17T03:54:08.273Z,2.52
2023-03-17T03:56:35.781Z,2.62
2023-03-17T03:59:04.693Z,2.63
2023-03-17T04:01:32.148Z,2.55
2023-03-17T04:04:02.040Z,2.55
2023-03-17T04:06:30.004Z,2.52
2023-03-17T04:08:58.425Z,2.46
2023-03-17T04:11:26.573Z,2.54
2023-03-17T04:13:54.879Z,2.54
2023-03-17T04:16:23.105Z,2.47
2023-03-17T04:18:50.689Z,2.56
2023-03-17T04:21:19.431Z,2.55
2023-03-17T04:23:48.805Z,2.52
2023-03-17T04:26:18.216Z,2.47
2023-03-17T04:28:46.972Z,2.59
2023-03-17T04:31:14.820Z,2.60
2023-03-17T04:33:43.012Z,2.54
2023-03-17T04:36:19.731Z,2.59
2023-03-17T04:38:47.349Z,2.57
2023-03-17T04:41:15.921Z,2.61
2023-03-17T04:43:43.627Z,2.49
2023-03-17T04:46:12.373Z,2.61
2023-03-17T04:48:41.122Z,2.61
2023-03-17T04:51:11.563Z,2.60
2023-03-17T04:53:40.655Z,2.55
2023-03-17T04:56:08.412Z,2.61
2023-03-17T04:58:36.119Z,2.67
2023-03-17T05:01:04.359Z,2.74
2023-03-17T05:03:33.478Z,2.73
2023-03-17T05:06:02.617Z,2.80
2023-03-17T05:08:30.972Z,2.79
2023-03-17T05:10:59.291Z,2.82
2023-03-17T05:13:27.641Z,2.82
2023-03-17T05:15:56.834Z,2.76
2023-03-17T05:18:26.658Z,2.77
2023-03-17T05:20:54.804Z,2.88
2023-03-17T05:23:23.256Z,2.82
2023-03-17T05:25:53.613Z,2.95
2023-03-17T05:28:22.774Z,2.93
2023-03-17T05:30:51.189Z,2.95
2023-03-17T05:33:19.292Z,2.96
2023-03-17T05:35:47.777Z,3.02
2023-03-17T05:38:19.212Z,3.05
2023-03-17T05:40:49.684Z,3.12
2023-03-17T05:43:17.419Z,3.20
2023-03-17T05:45:46.314Z,3.12
2023-03-17T05:48:14.880Z,3.18
2023-03-17T05:50:42.923Z,3.18
2023-03-17T05:53:11.011Z,3.22
2023-03-17T05:55:38.855Z,3.18
2023-03-17T05:58:07.009Z,3.12
2023-03-17T06:00:34.561Z,3.22
2023-03-17T06:03:02.602Z,3.17
2023-03-17T06:05:31.438Z,3.05
2023-03-17T06:07:58.895Z,3.23
2023-03-17T06:10:27.882Z,3.10
2023-03-17T06:12:56.079Z,3.26
2023-03-17T06:15:24.270Z,3.25
2023-03-17T06:17:52.882Z,3.44
2023-03-17T06:20:20.578Z,3.44
2023-03-17T06:23:02.847Z,3.50
2023-03-17T06:25:34.135Z,3.52
2023-03-17T06:28:04.212Z,3.68
2023-03-17T06:30:34.411Z,3.69
2023-03-17T06:33:03.054Z,3.76
2023-03-17T06:35:31.738Z,3.71
2023-03-17T06:38:01.186Z,3.66
2023-03-17T06:40:28.921Z,3.58
2023-03-17T06:42:56.944Z,3.58
2023-03-17T06:45:25.052Z,3.69
2023-03-17T06:47:53.174Z,3.81
2023-03-17T06:50:21.510Z,3.90
2023-03-17T06:52:50.719Z,4.04
2023-03-17T06:55:18.592Z,3.92
2023-03-17T06:57:49.157Z,4.13
2023-03-17T07:00:20.370Z,4.28
2023-03-17T07:02:50.743Z,4.00
2023-03-17T07:05:18.916Z,4.08
2023-03-17T07:07:47.521Z,4.11
2023-03-17T07:10:16.343Z,4.27
2023-03-17T07:12:44.227Z,4.30
2023-03-17T07:15:12.706Z,4.12
2023-03-17T07:17:41.477Z,4.27
2023-03-17T07:20:10.307Z,4.26
2023-03-17T07:22:37.955Z,4.35
2023-03-17T07:25:06.496Z,4.42
2023-03-17T07:27:35.205Z,4.34
2023-03-17T07:30:05.307Z,4.33
2023-03-17T07:32:34.644Z,4.18
2023-03-17T07:35:03.314Z,4.22
2023-03-17T07:37:32.073Z,4.25
2023-03-17T07:40:00.276Z,4.16
2023-03-17T07:42:30.487Z,4.32
2023-03-17T07:44:59.252Z,4.45
2023-03-17T07:47:28.987Z,4.67
2023-03-17T07:49:57.373Z,4.82
2023-03-17T07:52:25.676Z,4.80
2023-03-17T07:54:56.509Z,5.00
2023-03-17T07:57:26.041Z,5.19
2023-03-17T07:59:55.420Z,5.04
2023-03-17T08:02:24.788Z,4.95
2023-03-17T08:04:54.811Z,5.19
2023-03-17T08:07:23.107Z,5.10
2023-03-17T08:09:51.475Z,5.26
2023-03-17T08:12:22.543Z,5.27
2023-03-17T08:14:51.218Z,5.27
2023-03-17T08:17:20.400Z,4.94
2023-03-17T08:19:48.628Z,5.08
2023-03-17T08:22:16.854Z,5.27
2023-03-17T08:24:45.319Z,4.98
2023-03-17T08:27:13.082Z,4.88
2023-03-17T08:29:40.743Z,4.83
2023-03-17T08:32:10.321Z,4.51
2023-03-17T08:34:38.790Z,4.80
2023-03-17T08:37:10.158Z,4.69
2023-03-17T08:39:40.745Z,4.36
2023-03-17T08:42:08.722Z,4.41
2023-03-17T08:44:37.351Z,4.61
2023-03-17T08:47:06.021Z,4.66
2023-03-17T08:49:36.397Z,4.82
2023-03-17T08:52:05.023Z,4.55
2023-03-17T08:54:34.984Z,4.59
2023-03-17T08:57:03.279Z,4.80
2023-03-17T08:59:30.664Z,5.13
2023-03-17T09:01:59.748Z,5.23
2023-03-17T09:04:31.713Z,5.14
2023-03-17T09:07:04.549Z,5.15
2023-03-17T09:09:36.339Z,5.17
2023-03-17T09:12:06.773Z,5.29
2023-03-17T09:14:43.389Z,5.24
2023-03-17T09:17:14.738Z,5.19
2023-03-17T09:19:42.322Z,5.10
2023-03-17T09:22:14.652Z,5.18
2023-03-17T09:24:42.174Z,5.27
2023-03-17T09:27:10.124Z,5.19
2023-03-17T09:29:38.404Z,5.28
2023-03-17T09:32:06.131Z,5.14
2023-03-17T09:34:36.387Z,5.37
2023-03-17T09:37:04.576Z,5.36
2023-03-17T09:39:32.151Z,5.38
2023-03-17T09:42:08.354Z,5.31
2023-03-17T09:44:44.342Z,5.51
2023-03-17T09:47:29.075Z,4.97
2023-03-17T09:50:03.941Z,5.00
2023-03-17T09:52:34.738Z,5.27
2023-03-17T09:55:08.958Z,5.35
2023-03-17T09:57:39.999Z,5.61
2023-03-17T10:00:14.879Z,5.54
2023-03-17T10:02:43.653Z,5.78
2023-03-17T10:05:22.069Z,5.89
2023-03-17T10:07:56.315Z,5.85
2023-03-17T10:10:33.270Z,6.01
2023-03-17T10:13:20.262Z,6.19
2023-03-17T10:16:14.804Z,6.08
2023-03-17T10:19:01.681Z,5.91
2023-03-17T10:21:34.223Z,5.85
2023-03-17T10:24:05.275Z,5.91
2023-03-17T10:26:48.353Z,5.81
2023-03-17T10:29:32.401Z,5.26
2023-03-17T10:32:00.489Z,5.75
2023-03-17T10:34:34.019Z,5.66
2023-03-17T10:37:07.146Z,5.79
2023-03-17T10:39:47.935Z,5.96
2023-03-17T10:42:30.321Z,5.92
2023-03-17T10:45:00.541Z,5.98
2023-03-17T10:47:44.949Z,5.88
2023-03-17T10:50:15.830Z,5.87
2023-03-17T10:52:43.849Z,5.79
2023-03-17T10:55:19.900Z,5.76
2023-03-17T10:58:02.756Z,5.56
2023-03-17T11:00:35.584Z,5.64
2023-03-17T11:03:25.826Z,5.53
2023-03-17T11:06:09.595Z,5.38
2023-03-17T11:08:53.975Z,5.48
2023-03-17T11:11:24.272Z,5.43
2023-03-17T11:14:01.954Z,5.53
2023-03-17T11:16:29.725Z,5.50
2023-03-17T11:19:00.791Z,5.46
2023-03-17T11:21:35.881Z,5.50
2023-03-17T11:24:13.837Z,5.58
2023-03-17T11:27:26.706Z,5.53
2023-03-17T11:30:18.167Z,5.47
2023-03-17T11:32:59.469Z,5.61
2023-03-17T11:35:45.484Z,5.65
2023-03-17T11:38:30.178Z,5.41
2023-03-17T11:41:14.534Z,5.26
2023-03-17T11:44:09.019Z,5.26
2023-03-17T11:46:58.174Z,5.38
2023-03-17T11:49:36.774Z,5.35
2023-03-17T11:52:27.706Z,5.42
2023-03-17T11:55:10.130Z,5.39
2023-03-17T11:58:03.133Z,5.61
2023-03-17T12:00:35.296Z,5.51
2023-03-17T12:03:43.021Z,5.66
2023-03-17T12:06:22.658Z,5.65
2023-03-17T12:09:00.451Z,5.62
2023-03-17T12:11:35.215Z,5.58
2023-03-17T12:14:09.249Z,5.62
2023-03-17T12:16:47.698Z,5.66
2023-03-17T12:19:31.021Z,5.75
2023-03-17T12:22:09.026Z,5.76
2023-03-17T12:24:48.054Z,5.69
2023-03-17T12:27:25.890Z,5.79
2023-03-17T12:30:03.726Z,5.83
2023-03-17T12:32:56.309Z,5.90
2023-03-17T12:35:32.334Z,5.92
2023-03-17T12:38:27.502Z,5.83
2023-03-17T12:41:04.167Z,5.80
2023-03-17T12:44:06.078Z,5.88
2023-03-17T12:47:01.784Z,5.87
2023-03-17T12:49:54.019Z,5.99
2023-03-17T12:52:58.942Z,5.92
2023-03-17T12:55:32.037Z,5.86
2023-03-17T12:58:05.676Z,5.85
2023-03-17T13:00:38.580Z,5.84
2023-03-17T13:03:09.477Z,5.70
2023-03-17T13:05:37.950Z,5.73
2023-03-17T13:08:11.389Z,5.75
2023-03-17T13:10:48.453Z,5.74
2023-03-17T13:13:41.340Z,5.75
2023-03-17T13:16:27.898Z,5.81
2023-03-17T13:19:23.051Z,5.63
2023-03-17T13:22:13.093Z,5.40
2023-03-17T13:24:50.702Z,5.64
2023-03-17T13:27:33.496Z,5.80
2023-03-17T13:30:27.215Z,5.74
2023-03-17T13:33:20.118Z,5.50
2023-03-17T13:35:53.116Z,5.55
2023-03-17T13:38:35.814Z,5.34
2023-03-17T13:41:27.183Z,5.62
2023-03-17T13:44:08.351Z,5.73
2023-03-17T13:46:42.126Z,5.53
2023-03-17T13:49:18.923Z,5.24
2023-03-17T13:52:18.019Z,5.46
2023-03-17T13:54:51.804Z,5.34
2023-03-17T13:57:27.573Z,5.19
2023-03-17T14:00:15.650Z,5.36
2023-03-17T14:02:45.369Z,5.29
2023-03-17T14:05:24.852Z,5.33
2023-03-17T14:08:01.380Z,4.63
2023-03-17T14:10:33.144Z,4.56
2023-03-17T14:13:29.812Z,4.88
2023-03-17T14:16:05.881Z,4.71
2023-03-17T14:18:40.942Z,4.76
2023-03-17T14:21:22.520Z,4.81
2023-03-17T14:23:56.324Z,4.67
2023-03-17T14:26:25.771Z,4.83
2023-03-17T14:28:53.855Z,4.96
2023-03-17T14:31:25.711Z,4.82
2023-03-17T14:33:57.554Z,4.71
2023-03-17T14:36:27.078Z,4.65
2023-03-17T14:38:57.042Z,4.76
2023-03-17T14:41:29.152Z,4.84
2023-03-17T14:44:02.200Z,4.90
2023-03-17T14:46:39.327Z,4.82
2023-03-17T14:49:21.252Z,4.65
2023-03-17T14:51:54.148Z,4.41
2023-03-17T14:54:27.123Z,4.09
2023-03-17T14:57:02.463Z,4.35
2023-03-17T14:59:34.952Z,4.36
2023-03-17T15:02:24.699Z,4.46
2023-03-17T15:16:53.059Z,5.17
2023-03-17T15:19:29.002Z,4.93
2023-03-17T15:22:02.887Z,4.46
2023-03-17T15:24:44.342Z,4.72
2023-03-17T15:27:17.716Z,4.78
2023-03-17T15:29:46.475Z,4.75
2023-03-17T15:32:23.655Z,4.42
2023-03-17T15:34:54.163Z,4.20
2023-03-17T15:37:27.719Z,4.13
2023-03-17T15:39:56.726Z,4.32
2023-03-17T15:42:31.251Z,4.20
2023-03-17T15:45:01.436Z,4.29
2023-03-17T15:47:31.905Z,4.14
2023-03-17T15:50:04.279Z,4.31
2023-03-17T15:52:33.406Z,4.39
2023-03-17T15:55:00.834Z,4.34
2023-03-17T15:57:28.517Z,3.97
2023-03-17T15:59:56.051Z,4.12
2023-03-17T16:02:30.909Z,4.12
2023-03-17T16:05:01.745Z,3.66
2023-03-17T16:07:31.247Z,3.65
2023-03-17T16:09:58.780Z,3.76
2023-03-17T16:12:26.070Z,3.92
2023-03-17T16:14:53.386Z,3.69
2023-03-17T16:17:28.872Z,3.86
2023-03-17T16:19:57.457Z,3.87
2023-03-17T16:22:43.415Z,3.96
2023-03-17T16:25:27.957Z,3.96
2023-03-17T16:27:57.811Z,3.86
2023-03-17T16:30:29.644Z,3.94
2023-03-17T16:33:04.057Z,4.01
2023-03-17T16:35:31.726Z,4.05
2023-03-17T16:37:59.195Z,3.92
2023-03-17T16:40:28.925Z,3.99
2023-03-17T16:42:56.759Z,4.06
2023-03-17T16:45:27.461Z,4.04
2023-03-17T16:47:57.073Z,4.12
2023-03-17T16:50:26.838Z,3.96
2023-03-17T16:52:54.646Z,4.07
2023-03-17T16:55:23.935Z,3.97
2023-03-17T16:57:53.902Z,4.10
2023-03-17T17:00:25.493Z,3.91
2023-03-17T17:02:53.413Z,3.90
2023-03-17T17:05:23.965Z,4.05
2023-03-17T17:07:55.744Z,4.15
2023-03-17T17:10:25.271Z,4.14
2023-03-17T17:12:53.403Z,4.19
2023-03-17T17:15:21.855Z,4.18
2023-03-17T17:17:51.916Z,4.25
2023-03-17T17:20:23.800Z,4.19
2023-03-17T17:22:51.489Z,4.27
2023-03-17T17:25:18.812Z,4.25
2023-03-17T17:27:46.726Z,4.18
2023-03-17T17:30:17.119Z,4.28
2023-03-17T17:32:45.391Z,4.31
2023-03-17T17:35:14.036Z,4.13
2023-03-17T17:37:41.158Z,4.16
2023-03-17T17:40:12.100Z,4.22
2023-03-17T17:42:39.900Z,4.16
2023-03-17T17:45:07.974Z,4.20
2023-03-17T17:47:36.209Z,4.00
2023-03-17T17:50:04.283Z,4.17
2023-03-17T17:52:31.735Z,4.09
2023-03-17T17:55:01.256Z,4.16
2023-03-17T17:57:28.999Z,3.93
2023-03-17T17:59:56.685Z,3.99
2023-03-17T18:02:24.127Z,4.11
2023-03-17T18:04:52.359Z,4.19
2023-03-17T18:07:19.714Z,4.17
2023-03-17T18:09:47.499Z,4.03
2023-03-17T18:12:15.188Z,4.07
2023-03-17T18:14:42.449Z,3.91
2023-03-17T18:17:10.490Z,3.96
2023-03-17T18:19:37.776Z,3.87
2023-03-17T18:22:05.148Z,3.66
2023-03-17T18:24:32.705Z,3.73
2023-03-17T18:27:00.419Z,3.73
2023-03-17T18:29:28.042Z,3.68
2023-03-17T18:31:55.612Z,3.65
2023-03-17T18:34:27.295Z,3.60
2023-03-17T18:36:57.836Z,3.44
2023-03-17T18:39:26.282Z,3.55
2023-03-17T18:41:54.237Z,3.47
2023-03-17T18:44:23.757Z,3.25
2023-03-17T18:46:51.383Z,3.32
2023-03-17T18:49:18.857Z,3.34
2023-03-17T18:51:46.225Z,3.34
2023-03-17T18:54:14.081Z,3.22
2023-03-17T18:56:41.418Z,3.28
2023-03-17T18:59:08.892Z,3.19
2023-03-17T19:01:36.022Z,3.29
2023-03-17T19:04:04.910Z,3.16
2023-03-17T19:06:32.878Z,3.14
2023-03-17T19:09:00.098Z,3.05
2023-03-17T19:11:27.765Z,3.08
2023-03-17T19:13:55.057Z,3.26
2023-03-17T19:16:22.699Z,3.28
2023-03-17T19:18:51.667Z,3.25
2023-03-17T19:21:18.918Z,3.21
2023-03-17T19:23:46.239Z,3.22
2023-03-17T19:26:13.611Z,3.20
2023-03-17T19:28:40.717Z,3.10
2023-03-17T19:31:07.910Z,3.14
2023-03-17T19:33:36.148Z,3.28
2023-03-17T19:36:12.329Z,3.35
2023-03-17T19:38:40.892Z,3.21
2023-03-17T19:41:08.474Z,3.19
2023-03-17T19:43:40.785Z,3.26
2023-03-17T19:46:11.670Z,3.28
2023-03-17T19:48:40.041Z,3.19
2023-03-17T19:51:08.360Z,3.17
2023-03-17T19:53:37.644Z,3.16
2023-03-17T19:56:05.405Z,3.18
2023-03-17T19:58:33.156Z,3.20
2023-03-17T20:01:00.826Z,3.32
2023-03-17T20:03:28.718Z,3.37
2023-03-17T20:05:56.906Z,3.22
2023-03-17T20:08:24.915Z,3.19
2023-03-17T20:10:54.068Z,3.31
2023-03-17T20:13:22.748Z,3.33
2023-03-17T20:15:51.898Z,3.33
2023-03-17T20:18:20.231Z,3.27
2023-03-17T20:20:52.571Z,3.24
2023-03-17T20:23:21.996Z,3.24
2023-03-17T20:25:49.828Z,3.32
2023-03-17T20:28:17.903Z,3.31
2023-03-17T20:30:46.112Z,3.35
2023-03-17T20:33:14.422Z,3.31
2023-03-17T20:35:44.065Z,3.27
2023-03-17T20:38:13.686Z,3.36
2023-03-17T20:40:41.963Z,3.38
2023-03-17T20:43:12.278Z,3.34
2023-03-17T20:45:39.626Z,3.33
2023-03-17T20:48:10.971Z,3.42
2023-03-17T20:50:39.174Z,3.46
2023-03-17T20:53:06.729Z,3.49
2023-03-17T20:55:34.018Z,3.45
2023-03-17T20:58:02.101Z,3.40
2023-03-17T21:00:30.376Z,3.42
2023-03-17T21:02:57.901Z,3.28
2023-03-17T21:05:27.661Z,3.19
2023-03-17T21:07:56.749Z,3.35
2023-03-17T21:10:24.274Z,3.38
2023-03-17T21:12:51.539Z,3.35
2023-03-17T21:15:19.316Z,3.30
2023-03-17T21:17:46.664Z,3.31
2023-03-17T21:20:14.083Z,3.27
2023-03-17T21:22:41.239Z,3.33
2023-03-17T21:25:10.072Z,3.36
2023-03-17T21:27:38.860Z,3.39
2023-03-17T21:30:12.711Z,3.41
2023-03-17T21:32:41.989Z,3.38
2023-03-17T21:35:10.576Z,3.40
2023-03-17T21:37:37.669Z,3.34
2023-03-17T21:40:07.519Z,3.20
2023-03-17T21:42:34.875Z,3.18
2023-03-17T21:45:02.282Z,3.19
2023-03-17T21:47:30.235Z,3.15
2023-03-17T21:49:58.287Z,3.22
2023-03-17T21:52:25.705Z,3.08
2023-03-17T21:54:53.401Z,3.10
2023-03-17T21:57:20.580Z,3.19
2023-03-17T21:59:48.325Z,3.15
2023-03-17T22:02:18.604Z,3.13
2023-03-17T22:04:47.065Z,3.08
2023-03-17T22:07:14.718Z,3.05
2023-03-17T22:09:41.945Z,3.02
2023-03-17T22:12:09.016Z,3.08
2023-03-17T22:14:36.289Z,3.05
2023-03-17T22:17:05.587Z,2.98
2023-03-17T22:19:32.719Z,3.07
2023-03-17T22:21:59.655Z,3.06
2023-03-17T22:24:26.787Z,3.12
2023-03-17T22:26:54.224Z,3.31
2023-03-17T22:29:21.772Z,3.36
2023-03-17T22:31:48.982Z,3.39
2023-03-17T22:34:16.544Z,3.46
2023-03-17T22:36:43.629Z,3.59
2023-03-17T22:39:11.027Z,3.64
2023-03-17T22:41:38.945Z,3.70
2023-03-17T22:44:09.546Z,3.81
2023-03-17T22:46:40.967Z,3.77
2023-03-17T22:49:09.038Z,3.83
2023-03-17T22:51:37.339Z,3.82
2023-03-17T22:54:05.009Z,3.93
2023-03-17T22:56:32.488Z,3.86
2023-03-17T22:59:00.106Z,4.04
2023-03-17T23:01:27.710Z,4.00
2023-03-17T23:03:55.680Z,4.06
2023-03-17T23:06:23.473Z,4.16
2023-03-17T23:08:51.168Z,4.21
2023-03-17T23:11:24.212Z,4.23
2023-03-17T23:13:52.824Z,4.32
2023-03-17T23:16:20.690Z,4.19
2023-03-17T23:18:48.560Z,4.30
2023-03-17T23:21:36.949Z,4.17
2023-03-17T23:24:07.140Z,4.17
2023-03-17T23:26:37.325Z,4.29
2023-03-17T23:29:07.542Z,4.13
2023-03-17T23:31:35.614Z,3.94
2023-03-17T23:34:03.747Z,4.01
2023-03-17T23:36:31.076Z,4.03
2023-03-17T23:38:58.326Z,3.93
2023-03-17T23:41:26.330Z,3.83
2023-03-17T23:43:53.663Z,3.55
2023-03-17T23:46:20.877Z,3.80
2023-03-17T23:48:49.455Z,3.80
2023-03-17T23:51:17.197Z,3.97
2023-03-17T23:53:45.538Z,4.05
2023-03-17T23:56:13.228Z,4.03
2023-03-17T23:58:43.762Z,4.14
